createdAt,value
2019-01-27T00:00:41.903Z,2.72
2019-01-27T00:01:43.286Z,2.75
2019-01-27T00:02:43.689Z,2.73
2019-01-27T00:03:44.653Z,2.75
2019-01-27T00:04:45.342Z,2.76
2019-01-27T00:05:47.038Z,2.75
2019-01-27T00:06:47.168Z,2.75
2019-01-27T00:07:48.321Z,2.72
2019-01-27T00:08:48.730Z,2.68
2019-01-27T00:09:49.861Z,2.69
2019-01-27T00:10:50.275Z,2.76
2019-01-27T00:11:51.090Z,2.68
2019-01-27T00:12:51.497Z,2.7
2019-01-27T00:13:52.906Z,2.73
2019-01-27T00:14:53.306Z,2.69
2019-01-27T00:15:53.993Z,2.68
2019-01-27T00:16:54.675Z,2.7
2019-01-27T00:17:54.805Z,2.76
2019-01-27T00:18:56.046Z,2.65
2019-01-27T00:19:56.732Z,2.65
2019-01-27T00:20:57.172Z,2.7
2019-01-27T00:21:58.256Z,2.68
2019-01-27T00:22:58.661Z,2.72
2019-01-27T00:23:59.640Z,2.7
2019-01-27T00:25:00.885Z,2.7
2019-01-27T00:26:00.846Z,2.68
2019-01-27T00:27:01.255Z,2.68
2019-01-27T00:28:01.673Z,2.68
2019-01-27T00:29:02.354Z,2.72
2019-01-27T00:30:03.601Z,2.65
2019-01-27T00:31:03.730Z,2.72
2019-01-27T00:32:04.268Z,2.68
2019-01-27T00:33:05.230Z,2.64
2019-01-27T00:34:05.359Z,2.68
2019-01-27T00:35:05.767Z,2.76
2019-01-27T00:36:07.172Z,2.64
2019-01-27T00:37:07.309Z,2.65
2019-01-27T00:38:07.717Z,2.76
2019-01-27T00:39:08.402Z,2.73
2019-01-27T00:40:08.548Z,2.72
2019-01-27T00:41:09.955Z,2.68
2019-01-27T00:42:10.069Z,2.59
2019-01-27T00:43:11.482Z,2.57
2019-01-27T00:44:12.388Z,2.68
2019-01-27T00:45:13.795Z,2.57
2019-01-27T00:46:14.201Z,2.7
2019-01-27T00:47:14.884Z,2.65
2019-01-27T00:48:15.292Z,2.69
2019-01-27T00:49:15.697Z,2.59
2019-01-27T00:50:17.107Z,2.7
2019-01-27T00:51:17.511Z,2.73
2019-01-27T00:52:18.128Z,2.58
2019-01-27T00:53:18.821Z,2.57
2019-01-27T00:54:20.225Z,2.61
2019-01-27T00:55:20.633Z,2.57
2019-01-27T00:56:21.763Z,2.58
2019-01-27T00:57:23.181Z,2.61
2019-01-27T00:58:23.589Z,2.57
2019-01-27T00:59:23.991Z,2.61
2019-01-27T01:00:25.119Z,2.59
2019-01-27T01:01:25.821Z,2.55
2019-01-27T01:02:26.647Z,2.51
2019-01-27T01:03:27.611Z,2.51
2019-01-27T01:04:28.017Z,2.51
2019-01-27T01:05:28.422Z,2.58
2019-01-27T01:06:29.105Z,2.51
2019-01-27T01:07:29.512Z,2.44
2019-01-27T01:08:29.919Z,2.44
2019-01-27T01:09:30.641Z,2.46
2019-01-27T01:10:31.048Z,2.5
2019-01-27T01:11:31.453Z,2.39
2019-01-27T01:12:32.287Z,2.34
2019-01-27T01:13:33.526Z,2.39
2019-01-27T01:14:34.489Z,2.34
2019-01-27T01:15:34.897Z,2.32
2019-01-27T01:16:35.300Z,2.19
2019-01-27T01:17:36.982Z,2.25
2019-01-27T01:18:37.221Z,2.26
2019-01-27T01:19:37.907Z,2.23
2019-01-27T01:20:38.319Z,2.25
2019-01-27T01:21:39.277Z,2.14
2019-01-27T01:22:40.646Z,2.19
2019-01-27T01:23:41.052Z,2.25
2019-01-27T01:24:42.582Z,2.19
2019-01-27T01:25:43.543Z,2.22
2019-01-27T01:26:43.675Z,2.19
2019-01-27T01:27:44.395Z,2.26
2019-01-27T01:28:46.079Z,2.33
2019-01-27T01:29:46.214Z,2.3
2019-01-27T01:30:46.624Z,2.22
2019-01-27T01:31:47.058Z,2.32
2019-01-27T01:32:47.937Z,2.3
2019-01-27T01:33:49.621Z,2.32
2019-01-27T01:34:50.587Z,2.34
2019-01-27T01:35:51.275Z,2.43
2019-01-27T01:36:51.522Z,2.33
2019-01-27T01:37:52.931Z,2.36
2019-01-27T01:38:53.342Z,2.33
2019-01-27T01:39:54.481Z,2.36
2019-01-27T01:40:55.168Z,2.3
2019-01-27T01:41:55.578Z,2.34
2019-01-27T01:42:56.978Z,2.26
2019-01-27T01:43:57.383Z,2.33
2019-01-27T01:44:58.789Z,2.22
2019-01-27T01:45:59.196Z,2.36
2019-01-27T01:46:59.325Z,2.34
2019-01-27T01:48:00.732Z,2.23
2019-01-27T01:49:01.858Z,2.33
2019-01-27T01:50:03.266Z,2.33
2019-01-27T01:51:04.947Z,2.3
2019-01-27T01:52:05.355Z,2.3
2019-01-27T01:53:05.475Z,2.33
2019-01-27T01:54:06.437Z,2.25
2019-01-27T01:55:06.563Z,2.26
2019-01-27T01:56:07.253Z,2.33
2019-01-27T01:57:07.950Z,2.25
2019-01-27T01:58:08.639Z,2.22
2019-01-27T01:59:09.323Z,2.22
2019-01-27T02:00:09.454Z,2.25
2019-01-27T02:01:10.858Z,2.25
2019-01-27T02:02:11.541Z,2.22
2019-01-27T02:03:12.216Z,2.22
2019-01-27T02:04:12.903Z,2.19
2019-01-27T02:05:13.311Z,2.19
2019-01-27T02:06:13.721Z,2.21
2019-01-27T02:07:14.697Z,2.22
2019-01-27T02:08:14.827Z,2.25
2019-01-27T02:09:15.250Z,2.3
2019-01-27T02:10:15.927Z,2.25
2019-01-27T02:11:16.612Z,2.28
2019-01-27T02:12:17.055Z,2.33
2019-01-27T02:12:29.077Z,2.34
2019-01-27T02:13:29.903Z,2.34
2019-01-27T02:14:30.307Z,2.33
2019-01-27T02:15:30.991Z,2.36
2019-01-27T02:16:31.399Z,2.4
2019-01-27T02:17:31.528Z,2.36
2019-01-27T02:18:32.225Z,2.4
2019-01-27T02:19:33.213Z,2.37
2019-01-27T02:20:33.618Z,2.32
2019-01-27T02:21:35.140Z,2.3
2019-01-27T02:22:35.264Z,2.39
2019-01-27T02:23:36.417Z,2.3
2019-01-27T02:24:36.125Z,2.22
2019-01-27T02:25:37.255Z,2.19
2019-01-27T02:26:38.387Z,2.22
2019-01-27T02:27:39.834Z,2.18
2019-01-27T02:28:40.241Z,2.1
2019-01-27T02:29:41.215Z,2.15
2019-01-27T02:30:41.623Z,2.14
2019-01-27T02:31:42.319Z,2.16
2019-01-27T02:32:43.280Z,2.14
2019-01-27T02:33:43.955Z,2.14
2019-01-27T02:34:44.650Z,2.25
2019-01-27T02:35:45.057Z,2.23
2019-01-27T02:36:46.740Z,2.36
2019-01-27T02:37:47.150Z,2.26
2019-01-27T02:38:48.123Z,2.41
2019-01-27T02:39:49.138Z,2.34
2019-01-27T02:40:49.556Z,2.34
2019-01-27T02:41:50.983Z,2.41
2019-01-27T02:42:51.671Z,2.39
2019-01-27T02:43:52.772Z,2.39
2019-01-27T02:44:53.219Z,2.44
2019-01-27T02:45:53.906Z,2.5
2019-01-27T02:46:55.428Z,2.43
2019-01-27T02:47:55.842Z,2.5
2019-01-27T02:48:55.970Z,2.46
2019-01-27T02:49:57.096Z,2.54
2019-01-27T02:50:57.503Z,2.55
2019-01-27T02:51:58.491Z,2.54
2019-01-27T02:52:59.175Z,2.58
2019-01-27T02:54:00.272Z,2.58
2019-01-27T02:55:02.424Z,2.55
2019-01-27T02:56:02.112Z,2.51
2019-01-27T02:57:02.245Z,2.54
2019-01-27T02:58:03.776Z,2.61
2019-01-27T02:59:04.742Z,2.57
2019-01-27T03:00:05.147Z,2.57
2019-01-27T03:01:06.387Z,2.61
2019-01-27T03:02:07.349Z,2.61
2019-01-27T03:03:07.796Z,2.52
2019-01-27T03:04:08.920Z,2.52
2019-01-27T03:05:10.163Z,2.51
2019-01-27T03:06:11.146Z,2.58
2019-01-27T03:07:11.558Z,2.54
2019-01-27T03:08:12.985Z,2.43
2019-01-27T03:09:13.673Z,2.46
2019-01-27T03:10:14.660Z,2.47
2019-01-27T03:11:15.073Z,2.4
2019-01-27T03:12:16.481Z,2.41
2019-01-27T03:13:17.735Z,2.4
2019-01-27T03:14:17.827Z,2.32
2019-01-27T03:15:18.818Z,2.3
2019-01-27T03:16:19.228Z,2.28
2019-01-27T03:17:20.779Z,2.23
2019-01-27T03:18:21.028Z,2.26
2019-01-27T03:19:21.988Z,2.23
2019-01-27T03:20:22.967Z,2.32
2019-01-27T03:21:23.378Z,2.33
2019-01-27T03:22:24.348Z,2.23
2019-01-27T03:23:25.314Z,2.16
2019-01-27T03:24:25.983Z,2.16
2019-01-27T03:25:26.942Z,2.07
2019-01-27T03:26:27.903Z,2.12
2019-01-27T03:27:28.312Z,2.15
2019-01-27T03:28:29.724Z,2.08
2019-01-27T03:29:29.973Z,2.15
2019-01-27T03:30:31.229Z,2.15
2019-01-27T03:31:31.613Z,2.16
2019-01-27T03:32:32.158Z,2.12
2019-01-27T03:33:33.256Z,2.04
2019-01-27T03:34:33.649Z,1.95
2019-01-27T03:35:34.337Z,2.03
2019-01-27T03:36:35.020Z,2.08
2019-01-27T03:37:35.992Z,1.98
2019-01-27T03:38:35.952Z,2.08
2019-01-27T03:39:37.077Z,2.1
2019-01-27T03:40:38.212Z,2.08
2019-01-27T03:41:39.168Z,2.08
2019-01-27T03:42:40.239Z,2.03
2019-01-27T03:43:39.930Z,2.04
2019-01-27T03:44:41.064Z,1.92
2019-01-27T03:45:41.471Z,2.01
2019-01-27T03:46:42.517Z,1.97
2019-01-27T03:47:42.929Z,1.93
2019-01-27T03:48:43.619Z,1.92
2019-01-27T03:49:44.026Z,1.95
2019-01-27T03:50:45.159Z,2
2019-01-27T03:51:45.574Z,1.92
2019-01-27T03:52:46.552Z,1.97
2019-01-27T03:53:46.513Z,1.93
2019-01-27T03:54:47.631Z,1.93
2019-01-27T03:55:48.344Z,1.95
2019-01-27T03:56:48.749Z,1.89
2019-01-27T03:57:49.466Z,1.92
2019-01-27T03:58:50.503Z,1.93
2019-01-27T03:59:51.489Z,1.97
2019-01-27T04:00:52.451Z,1.92
2019-01-27T04:01:52.869Z,1.97
2019-01-27T04:02:54.115Z,2
2019-01-27T04:03:54.351Z,2.01
2019-01-27T04:04:55.206Z,1.98
2019-01-27T04:05:56.192Z,1.95
2019-01-27T04:06:56.435Z,2
2019-01-27T04:07:56.572Z,2.08
2019-01-27T04:08:57.258Z,2.05
2019-01-27T04:09:58.225Z,2.01
2019-01-27T04:10:58.206Z,1.98
2019-01-27T04:11:59.231Z,1.98
2019-01-27T04:12:59.474Z,1.98
2019-01-27T04:13:59.450Z,1.95
2019-01-27T04:14:59.750Z,1.95
2019-01-27T04:16:01.290Z,2
2019-01-27T04:17:02.028Z,2
2019-01-27T04:18:03.000Z,1.97
2019-01-27T04:19:04.526Z,1.97
2019-01-27T04:20:04.211Z,1.97
2019-01-27T04:21:04.657Z,1.97
2019-01-27T04:22:06.351Z,1.86
2019-01-27T04:23:07.889Z,1.98
2019-01-27T04:24:08.401Z,1.88
2019-01-27T04:25:08.811Z,1.92
2019-01-27T04:26:09.772Z,1.85
2019-01-27T04:27:10.696Z,1.93
2019-01-27T04:28:12.707Z,1.98
2019-01-27T04:29:13.681Z,1.98
2019-01-27T04:30:14.704Z,1.98
2019-01-27T04:31:15.500Z,2
2019-01-27T04:32:15.982Z,1.98
2019-01-27T04:33:17.944Z,1.92
2019-01-27T04:34:18.190Z,2.01
2019-01-27T04:35:18.728Z,2.01
2019-01-27T04:36:19.428Z,2.05
2019-01-27T04:37:19.392Z,2
2019-01-27T04:38:19.795Z,1.98
2019-01-27T04:39:20.767Z,2.15
2019-01-27T04:40:22.013Z,2.15
2019-01-27T04:41:21.988Z,2.07
2019-01-27T04:42:22.951Z,2.15
2019-01-27T04:43:24.469Z,1.98
2019-01-27T04:44:24.428Z,2.03
2019-01-27T04:45:25.535Z,2.15
2019-01-27T04:46:27.052Z,2.18
2019-01-27T04:47:27.503Z,2.16
2019-01-27T04:48:28.194Z,2.12
2019-01-27T04:49:29.156Z,2.19
2019-01-27T04:50:29.638Z,2.23
2019-01-27T04:51:30.887Z,2.22
2019-01-27T04:52:31.858Z,2.19
2019-01-27T04:53:33.101Z,2.21
2019-01-27T04:54:33.229Z,2.19
2019-01-27T04:55:33.876Z,2.22
2019-01-27T04:56:34.571Z,2.28
2019-01-27T04:57:35.022Z,2.21
2019-01-27T04:58:36.429Z,2.15
2019-01-27T04:59:37.115Z,2.21
2019-01-27T05:00:37.843Z,2.23
2019-01-27T05:01:37.974Z,2.23
2019-01-27T05:02:38.945Z,2.22
2019-01-27T05:03:39.669Z,2.12
2019-01-27T05:04:39.637Z,2.19
2019-01-27T05:05:40.177Z,2.15
2019-01-27T05:06:41.583Z,2.18
2019-01-27T05:07:42.271Z,2.18
2019-01-27T05:08:43.801Z,2.23
2019-01-27T05:09:43.769Z,2.21
2019-01-27T05:10:44.178Z,2.21
2019-01-27T05:11:45.438Z,2.26
2019-01-27T05:12:46.443Z,2.25
2019-01-27T05:13:47.426Z,2.22
2019-01-27T05:14:48.416Z,2.21
2019-01-27T05:15:48.817Z,2.22
2019-01-27T05:16:49.502Z,2.3
2019-01-27T05:17:49.918Z,2.33
2019-01-27T05:18:50.882Z,2.22
2019-01-27T05:19:51.012Z,2.34
2019-01-27T05:20:51.529Z,2.32
2019-01-27T05:21:52.212Z,2.28
2019-01-27T05:22:53.186Z,2.28
2019-01-27T05:23:54.164Z,2.32
2019-01-27T05:24:55.137Z,2.26
2019-01-27T05:25:55.811Z,2.33
2019-01-27T05:26:56.777Z,2.3
2019-01-27T05:27:57.235Z,2.32
2019-01-27T05:28:58.202Z,2.26
2019-01-27T05:29:58.888Z,2.3
2019-01-27T05:30:59.608Z,2.41
2019-01-27T05:32:00.851Z,2.32
2019-01-27T05:33:00.839Z,2.44
2019-01-27T05:34:01.989Z,2.37
2019-01-27T05:35:02.677Z,2.34
2019-01-27T05:36:03.927Z,2.34
2019-01-27T05:37:04.168Z,2.32
2019-01-27T05:38:04.129Z,2.39
2019-01-27T05:39:04.843Z,2.36
2019-01-27T05:40:05.559Z,2.36
2019-01-27T05:41:05.800Z,2.36
2019-01-27T05:42:06.507Z,2.4
2019-01-27T05:43:06.637Z,2.41
2019-01-27T05:44:07.883Z,2.43
2019-01-27T05:45:08.564Z,2.5
2019-01-27T05:46:10.576Z,2.43
2019-01-27T05:47:10.543Z,2.43
2019-01-27T05:48:10.949Z,2.47
2019-01-27T05:49:11.935Z,2.5
2019-01-27T05:50:13.176Z,2.39
2019-01-27T05:51:14.144Z,2.39
2019-01-27T05:52:15.379Z,2.4
2019-01-27T05:53:15.070Z,2.41
2019-01-27T05:54:16.483Z,2.37
2019-01-27T05:55:17.465Z,2.36
2019-01-27T05:56:18.349Z,2.39
2019-01-27T05:57:19.312Z,2.4
2019-01-27T05:58:19.444Z,2.36
2019-01-27T05:59:20.642Z,2.36
2019-01-27T06:00:21.051Z,2.34
2019-01-27T06:01:21.225Z,2.34
2019-01-27T06:02:22.189Z,2.33
2019-01-27T06:03:23.326Z,2.26
2019-01-27T06:04:23.746Z,2.33
2019-01-27T06:05:25.151Z,2.28
2019-01-27T06:06:25.321Z,2.22
2019-01-27T06:07:25.736Z,2.32
2019-01-27T06:08:26.144Z,2.23
2019-01-27T06:09:27.122Z,2.26
2019-01-27T06:10:27.805Z,2.22
2019-01-27T06:11:28.280Z,2.26
2019-01-27T06:12:28.412Z,2.22
2019-01-27T06:13:29.099Z,2.26
2019-01-27T06:14:29.819Z,2.22
2019-01-27T06:15:30.226Z,2.22
2019-01-27T06:16:31.163Z,2.21
2019-01-27T06:17:31.845Z,2.12
2019-01-27T06:18:31.973Z,2.14
2019-01-27T06:19:32.436Z,2.15
2019-01-27T06:20:32.444Z,2.21
2019-01-27T06:21:33.849Z,2.22
2019-01-27T06:22:34.536Z,2.18
2019-01-27T06:23:35.561Z,2.18
2019-01-27T06:24:36.246Z,2.15
2019-01-27T06:25:37.490Z,2.19
2019-01-27T06:26:38.140Z,2.21
2019-01-27T06:27:39.672Z,2.12
2019-01-27T06:28:39.367Z,2.25
2019-01-27T06:29:40.052Z,2.21
2019-01-27T06:30:40.482Z,2.22
2019-01-27T06:31:41.444Z,2.21
2019-01-27T06:32:42.124Z,2.12
2019-01-27T06:33:43.811Z,2.1
2019-01-27T06:34:44.223Z,2.15
2019-01-27T06:35:44.908Z,2.16
2019-01-27T06:36:45.490Z,2.15
2019-01-27T06:37:45.918Z,2.07
2019-01-27T06:38:47.155Z,2.12
2019-01-27T06:39:47.115Z,1.98
2019-01-27T06:40:47.806Z,2.07
2019-01-27T06:41:48.496Z,2.14
2019-01-27T06:42:48.906Z,2.1
2019-01-27T06:43:50.041Z,2.01
2019-01-27T06:44:51.006Z,2
2019-01-27T06:45:51.966Z,1.93
2019-01-27T06:46:52.477Z,2
2019-01-27T06:47:53.919Z,1.93
2019-01-27T06:48:54.329Z,1.98
2019-01-27T06:49:55.460Z,1.98
2019-01-27T06:50:56.590Z,2
2019-01-27T06:51:57.555Z,1.93
2019-01-27T06:52:58.519Z,2.03
2019-01-27T06:53:59.212Z,1.97
2019-01-27T06:54:59.625Z,1.98
2019-01-27T06:56:00.071Z,1.97
2019-01-27T06:57:00.887Z,1.95
2019-01-27T06:58:01.572Z,1.88
2019-01-27T06:59:02.262Z,1.84
2019-01-27T07:00:02.670Z,1.84
2019-01-27T07:01:03.080Z,1.89
2019-01-27T07:02:04.046Z,1.84
2019-01-27T07:03:05.015Z,1.92
2019-01-27T07:04:05.426Z,1.81
2019-01-27T07:05:05.837Z,1.78
2019-01-27T07:06:07.248Z,1.76
2019-01-27T07:07:07.808Z,1.81
2019-01-27T07:08:08.220Z,1.75
2019-01-27T07:09:09.634Z,1.82
2019-01-27T07:10:10.344Z,1.81
2019-01-27T07:11:11.032Z,1.78
2019-01-27T07:12:12.162Z,1.81
2019-01-27T07:13:12.578Z,1.81
2019-01-27T07:14:13.279Z,1.81
2019-01-27T07:15:14.267Z,1.78
2019-01-27T07:16:14.394Z,1.82
2019-01-27T07:17:15.210Z,1.78
2019-01-27T07:18:15.899Z,1.84
2019-01-27T07:19:16.031Z,1.82
2019-01-27T07:20:16.445Z,1.97
2019-01-27T07:21:17.406Z,1.97
2019-01-27T07:22:18.094Z,1.95
2019-01-27T07:23:19.510Z,1.95
2019-01-27T07:24:20.200Z,2.04
2019-01-27T07:25:21.161Z,1.97
2019-01-27T07:26:21.863Z,1.98
2019-01-27T07:27:22.707Z,1.95
2019-01-27T07:28:23.675Z,2.03
2019-01-27T07:29:23.804Z,2.04
2019-01-27T07:30:24.212Z,2.04
2019-01-27T07:31:25.624Z,2.16
2019-01-27T07:32:26.866Z,2.16
2019-01-27T07:33:28.113Z,2.12
2019-01-27T07:34:28.852Z,2.1
2019-01-27T07:35:30.552Z,2.15
2019-01-27T07:36:30.681Z,2.16
2019-01-27T07:37:32.092Z,2.15
2019-01-27T07:38:32.509Z,2.15
2019-01-27T07:39:32.919Z,2.1
2019-01-27T07:40:33.606Z,2.15
2019-01-27T07:41:34.018Z,2.22
2019-01-27T07:42:35.160Z,2.22
2019-01-27T07:43:36.128Z,2.22
2019-01-27T07:44:36.552Z,2.23
2019-01-27T07:45:36.520Z,2.33
2019-01-27T07:46:37.216Z,2.3
2019-01-27T07:47:38.899Z,2.37
2019-01-27T07:48:39.310Z,2.4
2019-01-27T07:49:40.001Z,2.36
2019-01-27T07:50:41.412Z,2.43
2019-01-27T07:51:41.826Z,2.41
2019-01-27T07:52:42.271Z,2.58
2019-01-27T07:53:43.408Z,2.54
2019-01-27T07:54:44.104Z,2.55
2019-01-27T07:55:45.070Z,2.55
2019-01-27T07:56:45.759Z,2.68
2019-01-27T07:57:46.877Z,2.68
2019-01-27T07:58:47.289Z,2.69
2019-01-27T07:59:47.981Z,2.98
2019-01-27T08:00:47.949Z,3.09
2019-01-27T08:01:49.082Z,3.3
2019-01-27T08:02:50.225Z,3.33
2019-01-27T08:03:50.907Z,3.41
2019-01-27T08:04:51.320Z,3.46
2019-01-27T08:05:52.567Z,3.46
2019-01-27T08:06:52.978Z,3.49
2019-01-27T08:07:54.095Z,3.43
2019-01-27T08:08:54.781Z,3.33
2019-01-27T08:09:56.076Z,3.26
2019-01-27T08:10:57.043Z,3.3
2019-01-27T08:11:57.735Z,3.36
2019-01-27T08:12:58.423Z,3.55
2019-01-27T08:13:59.115Z,3.73
2019-01-27T08:14:59.251Z,3.92
2019-01-27T08:16:00.617Z,4.49
2019-01-27T08:17:01.313Z,5.16
2019-01-27T08:18:01.070Z,5.7
2019-01-27T08:19:02.212Z,6.07
2019-01-27T08:20:03.910Z,6.41
2019-01-27T08:21:04.600Z,6.75
2019-01-27T08:22:05.015Z,6.77
2019-01-27T08:23:05.706Z,6.95
2019-01-27T08:24:06.683Z,7.15
2019-01-27T08:25:07.100Z,7.31
2019-01-27T08:26:07.525Z,7.66
2019-01-27T08:27:08.980Z,7.9
2019-01-27T08:28:09.246Z,8.34
2019-01-27T08:29:10.401Z,8.59
2019-01-27T08:30:11.094Z,8.41
2019-01-27T08:31:11.512Z,8.03
2019-01-27T08:32:12.211Z,7.64
2019-01-27T08:33:12.902Z,7.43
2019-01-27T08:34:13.391Z,7.01
2019-01-27T08:35:13.809Z,6.9
2019-01-27T08:36:14.224Z,6.7
2019-01-27T08:37:16.287Z,6.89
2019-01-27T08:38:17.132Z,7.07
2019-01-27T08:39:18.107Z,7
2019-01-27T08:40:18.364Z,7.32
2019-01-27T08:41:19.062Z,7.4
2019-01-27T08:42:19.760Z,7.37
2019-01-27T08:43:19.898Z,7.36
2019-01-27T08:44:20.314Z,7.58
2019-01-27T08:45:20.733Z,7.91
2019-01-27T08:46:21.876Z,7.91
2019-01-27T08:47:23.031Z,8.21
2019-01-27T08:48:23.611Z,8.74
2019-01-27T08:49:25.035Z,9.11
2019-01-27T08:50:26.175Z,9.08
2019-01-27T08:51:26.596Z,8.6
2019-01-27T08:52:27.852Z,8.54
2019-01-27T08:53:28.545Z,8.44
2019-01-27T08:54:30.279Z,8.05
2019-01-27T08:55:30.976Z,7.77
2019-01-27T08:56:31.121Z,7.67
2019-01-27T08:57:31.816Z,7.55
2019-01-27T08:58:31.959Z,7.32
2019-01-27T08:59:33.102Z,7.43
2019-01-27T09:00:33.513Z,7.28
2019-01-27T09:01:34.935Z,7.21
2019-01-27T09:02:35.635Z,7.32
2019-01-27T09:03:36.057Z,7.58
2019-01-27T09:04:37.039Z,7.77
2019-01-27T09:05:37.197Z,8.17
2019-01-27T09:06:37.897Z,8.44
2019-01-27T09:07:38.912Z,8.44
2019-01-27T09:08:39.742Z,8.36
2019-01-27T09:09:40.993Z,8.74
2019-01-27T09:10:42.378Z,8.99
2019-01-27T09:11:42.998Z,8.66
2019-01-27T09:12:47.674Z,8.36
2019-01-27T09:12:59.540Z,8.27
2019-01-27T09:13:58.602Z,8.16
2019-01-27T09:14:59.333Z,8.11
2019-01-27T09:15:59.655Z,7.93
2019-01-27T09:17:00.385Z,8.08
2019-01-27T09:18:00.803Z,7.84
2019-01-27T09:19:01.525Z,7.74
2019-01-27T09:20:02.224Z,7.59
2019-01-27T09:21:02.918Z,7.69
2019-01-27T09:22:03.336Z,7.88
2019-01-27T09:23:03.755Z,7.91
2019-01-27T09:24:08.405Z,8.08
2019-01-27T09:24:17.642Z,8.06
2019-01-27T09:25:19.613Z,8.09
2019-01-27T09:26:19.031Z,8.31
2019-01-27T09:27:19.729Z,8.41
2019-01-27T09:28:19.704Z,8.6
2019-01-27T09:29:20.119Z,8.46
2019-01-27T09:30:21.096Z,8.42
2019-01-27T09:31:21.798Z,8.32
2019-01-27T09:32:21.940Z,8.27
2019-01-27T09:33:22.634Z,8.39
2019-01-27T09:34:23.771Z,8.14
2019-01-27T09:35:24.615Z,7.87
2019-01-27T09:36:25.315Z,7.62
2019-01-27T09:37:25.753Z,7.39
2019-01-27T09:38:26.893Z,7.28
2019-01-27T09:39:27.865Z,7.23
2019-01-27T09:40:28.279Z,6.97
2019-01-27T09:41:28.695Z,6.75
2019-01-27T09:42:29.409Z,6.71
2019-01-27T09:43:30.278Z,6.77
2019-01-27T09:44:31.249Z,7.05
2019-01-27T09:45:31.633Z,7.03
2019-01-27T09:46:32.061Z,7.05
2019-01-27T09:47:33.205Z,7.03
2019-01-27T09:48:34.621Z,6.47
2019-01-27T09:49:36.680Z,6.28
2019-01-27T09:50:37.818Z,6.17
2019-01-27T09:51:38.954Z,6.28
2019-01-27T09:52:39.925Z,6.17
2019-01-27T09:53:40.345Z,6.25
2019-01-27T09:54:40.760Z,6.22
2019-01-27T09:55:41.325Z,6.01
2019-01-27T09:56:41.742Z,6.15
2019-01-27T09:57:42.157Z,6.17
2019-01-27T09:58:45.725Z,5.91
2019-01-27T09:59:48.750Z,5.99
2019-01-27T09:59:56.497Z,6.07
2019-01-27T10:00:57.667Z,5.92
2019-01-27T10:01:58.366Z,6.06
2019-01-27T10:02:58.782Z,6.07
2019-01-27T10:03:59.198Z,6.05
2019-01-27T10:04:59.616Z,5.97
2019-01-27T10:05:59.865Z,6.02
2019-01-27T10:07:00.281Z,6.02
2019-01-27T10:08:01.540Z,6.05
2019-01-27T10:09:01.509Z,6.19
2019-01-27T10:10:01.657Z,6.2
2019-01-27T10:11:03.048Z,6.22
2019-01-27T10:12:03.186Z,6.26
2019-01-27T10:13:04.155Z,6.38
2019-01-27T10:14:04.853Z,6.52
2019-01-27T10:15:05.006Z,6.44
2019-01-27T10:16:05.698Z,6.53
2019-01-27T10:17:06.389Z,6.67
2019-01-27T10:18:06.808Z,6.72
2019-01-27T10:19:07.776Z,6.72
2019-01-27T10:20:08.193Z,6.78
2019-01-27T10:21:08.357Z,6.74
2019-01-27T10:22:08.770Z,6.85
2019-01-27T10:23:09.187Z,6.77
2019-01-27T10:24:10.160Z,6.72
2019-01-27T10:25:17.311Z,6.7
2019-01-27T10:25:23.193Z,6.68
2019-01-27T10:26:23.734Z,6.74
2019-01-27T10:27:24.430Z,6.59
2019-01-27T10:28:24.679Z,6.52
2019-01-27T10:29:25.929Z,6.62
2019-01-27T10:30:27.046Z,6.62
2019-01-27T10:31:27.193Z,6.75
2019-01-27T10:32:27.609Z,6.87
2019-01-27T10:33:32.428Z,6.97
2019-01-27T10:33:44.240Z,6.95
2019-01-27T10:34:42.095Z,7.03
2019-01-27T10:35:44.067Z,7.14
2019-01-27T10:36:44.911Z,7.21
2019-01-27T10:37:45.790Z,7.28
2019-01-27T10:38:46.079Z,7.33
2019-01-27T10:39:46.330Z,7.41
2019-01-27T10:40:47.302Z,7.29
2019-01-27T10:41:48.003Z,7.37
2019-01-27T10:42:48.973Z,7.33
2019-01-27T10:43:49.789Z,7.46
2019-01-27T10:44:50.018Z,7.44
2019-01-27T10:45:51.461Z,7.56
2019-01-27T10:46:53.302Z,7.75
2019-01-27T10:47:57.738Z,7.8
2019-01-27T10:48:07.613Z,7.74
2019-01-27T10:49:06.813Z,7.95
2019-01-27T10:50:07.506Z,8.06
2019-01-27T10:51:08.483Z,8.31
2019-01-27T10:52:09.177Z,8.39
2019-01-27T10:53:09.595Z,8.64
2019-01-27T10:54:10.033Z,8.99
2019-01-27T10:55:10.730Z,9.24
2019-01-27T10:56:11.424Z,9.66
2019-01-27T10:57:11.842Z,9.91
2019-01-27T10:58:12.440Z,10.23
2019-01-27T10:59:12.550Z,10.65
2019-01-27T11:00:13.691Z,10.97
2019-01-27T11:01:14.835Z,11.44
2019-01-27T11:02:15.812Z,12.08
2019-01-27T11:03:16.513Z,12.4
2019-01-27T11:04:17.515Z,12.66
2019-01-27T11:05:17.324Z,13.11
2019-01-27T11:06:17.471Z,13.43
2019-01-27T11:07:18.171Z,13.94
2019-01-27T11:08:18.873Z,14.07
2019-01-27T11:09:19.985Z,14.07
2019-01-27T11:10:20.131Z,14.03
2019-01-27T11:11:21.555Z,14.12
2019-01-27T11:12:22.533Z,14.36
2019-01-27T11:13:23.521Z,14.43
2019-01-27T11:14:24.267Z,14.28
2019-01-27T11:15:25.262Z,14.3
2019-01-27T11:16:26.249Z,14.25
2019-01-27T11:17:27.226Z,14.28
2019-01-27T11:18:27.945Z,14.26
2019-01-27T11:19:28.080Z,13.97
2019-01-27T11:20:28.503Z,13.76
2019-01-27T11:21:29.450Z,13.47
2019-01-27T11:22:30.643Z,13.3
2019-01-27T11:23:30.920Z,13.05
2019-01-27T11:24:31.342Z,12.54
2019-01-27T11:25:31.768Z,12.43
2019-01-27T11:26:32.193Z,12.4
2019-01-27T11:27:36.001Z,12.32
2019-01-27T11:28:35.432Z,12.37
2019-01-27T11:29:35.886Z,12.15
2019-01-27T11:30:36.316Z,11.58
2019-01-27T11:31:37.044Z,11.34
2019-01-27T11:32:39.389Z,11.13
2019-01-27T11:33:39.480Z,10.95
2019-01-27T11:34:39.457Z,11.08
2019-01-27T11:35:42.336Z,11.01
2019-01-27T11:36:40.482Z,11.02
2019-01-27T11:37:41.635Z,11.02
2019-01-27T11:38:42.054Z,10.9
2019-01-27T11:39:43.204Z,10.72
2019-01-27T11:40:44.349Z,10.75
2019-01-27T11:41:44.770Z,10.76
2019-01-27T11:42:45.474Z,10.75
2019-01-27T11:43:45.888Z,10.62
2019-01-27T11:44:48.446Z,10.58
2019-01-27T11:45:47.704Z,10.43
2019-01-27T11:46:48.132Z,10.57
2019-01-27T11:47:49.275Z,10.61
2019-01-27T11:48:49.985Z,10.49
2019-01-27T11:49:50.371Z,10.55
2019-01-27T11:50:51.067Z,10.25
2019-01-27T11:51:52.207Z,10.3
2019-01-27T11:52:53.456Z,10.33
2019-01-27T11:53:53.874Z,10.25
2019-01-27T11:54:54.570Z,10.42
2019-01-27T11:55:55.052Z,10.46
2019-01-27T11:56:55.491Z,10.62
2019-01-27T11:57:56.633Z,10.67
2019-01-27T11:58:57.615Z,10.67
2019-01-27T11:59:58.439Z,10.59
2019-01-27T12:00:59.900Z,10.65
2019-01-27T12:02:00.010Z,10.58
2019-01-27T12:03:00.430Z,10.64
2019-01-27T12:04:01.410Z,10.59
2019-01-27T12:05:02.121Z,10.57
2019-01-27T12:06:02.532Z,10.69
2019-01-27T12:07:03.231Z,10.68
2019-01-27T12:08:03.927Z,10.58
2019-01-27T12:09:04.347Z,10.48
2019-01-27T12:10:05.197Z,10.25
2019-01-27T12:11:06.374Z,10.24
2019-01-27T12:12:10.031Z,10.13
2019-01-27T12:13:10.801Z,10.03
2019-01-27T12:14:10.271Z,10.07
2019-01-27T12:15:10.976Z,10.05
2019-01-27T12:16:11.958Z,10.02
2019-01-27T12:17:12.382Z,9.95
2019-01-27T12:18:13.632Z,9.84
2019-01-27T12:19:14.343Z,9.73
2019-01-27T12:20:15.497Z,9.52
2019-01-27T12:21:16.195Z,9.47
2019-01-27T12:22:17.168Z,9.36
2019-01-27T12:23:18.178Z,9.34
2019-01-27T12:24:19.153Z,9.12
2019-01-27T12:25:20.854Z,9.08
2019-01-27T12:26:21.275Z,9.12
2019-01-27T12:27:21.693Z,9.22
2019-01-27T12:28:22.390Z,9.22
2019-01-27T12:29:23.089Z,9.15
2019-01-27T12:30:23.313Z,9.11
2019-01-27T12:31:24.057Z,9.09
2019-01-27T12:32:24.477Z,9.13
2019-01-27T12:33:25.167Z,9.11
2019-01-27T12:34:25.590Z,9.11
2019-01-27T12:35:26.847Z,9.11
2019-01-27T12:36:26.989Z,9.18
2019-01-27T12:37:28.409Z,9.26
2019-01-27T12:38:29.424Z,9.16
2019-01-27T12:39:29.841Z,9.12
2019-01-27T12:40:31.229Z,9.11
2019-01-27T12:41:31.645Z,8.95
2019-01-27T12:42:32.063Z,9
2019-01-27T12:43:32.217Z,8.96
2019-01-27T12:44:32.909Z,8.92
2019-01-27T12:45:33.606Z,8.9
2019-01-27T12:46:34.611Z,8.9
2019-01-27T12:47:35.752Z,9
2019-01-27T12:48:36.457Z,9.03
2019-01-27T12:49:37.595Z,8.99
2019-01-27T12:50:37.883Z,8.78
2019-01-27T12:51:39.300Z,9.02
2019-01-27T12:52:39.720Z,8.96
2019-01-27T12:53:41.139Z,9.03
2019-01-27T12:54:41.840Z,8.77
2019-01-27T12:55:44.792Z,8.77
2019-01-27T12:56:44.459Z,8.77
2019-01-27T12:57:45.153Z,8.77
2019-01-27T12:58:45.574Z,8.72
2019-01-27T12:59:46.543Z,8.64
2019-01-27T13:00:47.373Z,8.59
2019-01-27T13:01:48.068Z,8.59
2019-01-27T13:02:49.044Z,8.6
2019-01-27T13:03:50.184Z,8.64
2019-01-27T13:04:51.603Z,8.66
2019-01-27T13:05:52.299Z,8.64
2019-01-27T13:06:52.719Z,8.61
2019-01-27T13:07:53.867Z,8.57
2019-01-27T13:08:54.836Z,8.53
2019-01-27T13:09:55.972Z,8.6
2019-01-27T13:10:57.091Z,8.64
2019-01-27T13:11:57.789Z,8.77
2019-01-27T13:12:58.486Z,8.75
2019-01-27T13:13:59.459Z,8.92
2019-01-27T13:14:59.609Z,8.92
2019-01-27T13:16:00.761Z,8.96
2019-01-27T13:17:01.178Z,9.02
2019-01-27T13:18:01.592Z,8.93
2019-01-27T13:19:02.302Z,8.78
2019-01-27T13:20:03.104Z,8.72
2019-01-27T13:21:03.951Z,8.66
2019-01-27T13:22:04.652Z,8.64
2019-01-27T13:23:05.068Z,8.59
2019-01-27T13:24:05.799Z,8.52